Terminal Aerodrome Forecast
Issued by NWS

Home | Current Version | Previous Version | Text Only | Print | Product List | Glossary On
Versions: 1 2 3 4 5 6 7 8 9 10 11 12
000
FTUS43 KBIS 272300
TAFDIK
TAF
KDIK 272330Z 2800/2824 26007KT P6SM SCT060 BKN090
     FM280500 VRB05KT P6SM OVC025
     FM281000 08006KT 5SM -SN BR OVC015
     FM281400 07008KT 4SM -SN BR OVC008=

USA.gov is the U.S. government's official web portal to all federal, state and local government web resources and services.